createdAt,value
2018-12-01T00:00:20.971Z,7.37
2018-12-01T00:02:49.932Z,7.31
2018-12-01T00:05:32.360Z,7.28
2018-12-01T00:08:09.272Z,7.25
2018-12-01T00:10:38.157Z,7.25
2018-12-01T00:13:06.772Z,7.22
2018-12-01T00:15:35.324Z,7.22
2018-12-01T00:18:03.883Z,7.17
2018-12-01T00:20:33.874Z,7.14
2018-12-01T00:23:02.464Z,7.14
2018-12-01T00:25:30.723Z,7.10
2018-12-01T00:28:02.526Z,7.04
2018-12-01T00:30:30.806Z,6.98
2018-12-01T00:32:59.344Z,6.99
2018-12-01T00:35:27.684Z,7.02
2018-12-01T00:37:56.003Z,6.98
2018-12-01T00:40:24.463Z,6.95
2018-12-01T00:42:52.803Z,6.92
2018-12-01T00:45:22.112Z,6.97
2018-12-01T00:47:51.512Z,6.97
2018-12-01T00:50:24.377Z,6.90
2018-12-01T00:52:53.537Z,6.91
2018-12-01T00:55:22.131Z,6.89
2018-12-01T00:57:53.640Z,6.90
2018-12-01T01:00:24.847Z,6.88
2018-12-01T01:02:56.485Z,6.88
2018-12-01T01:05:25.503Z,6.85
2018-12-01T01:07:54.785Z,6.88
2018-12-01T01:10:24.504Z,6.88
2018-12-01T01:12:53.305Z,6.86
2018-12-01T01:15:21.884Z,6.85
2018-12-01T01:17:50.403Z,6.86
2018-12-01T01:20:20.783Z,6.84
2018-12-01T01:22:49.187Z,6.85
2018-12-01T01:25:17.643Z,6.84
2018-12-01T01:27:47.924Z,6.79
2018-12-01T01:30:20.203Z,6.85
2018-12-01T01:32:48.922Z,6.84
2018-12-01T01:35:17.382Z,6.85
2018-12-01T01:37:45.984Z,6.78
2018-12-01T01:40:16.158Z,6.79
2018-12-01T01:42:44.625Z,6.75
2018-12-01T01:45:14.984Z,6.75
2018-12-01T01:47:43.403Z,6.71
2018-12-01T01:50:13.665Z,6.80
2018-12-01T01:52:42.004Z,6.82
2018-12-01T01:55:11.166Z,6.89
2018-12-01T01:57:39.614Z,6.94
2018-12-01T02:00:15.074Z,7.02
2018-12-01T02:02:44.492Z,7.01
2018-12-01T02:05:12.892Z,7.11
2018-12-01T02:07:41.272Z,7.12
2018-12-01T02:10:10.672Z,7.11
2018-12-01T02:12:39.112Z,7.14
2018-12-01T02:15:08.412Z,7.13
2018-12-01T02:17:36.672Z,7.19
2018-12-01T02:20:10.472Z,7.20
2018-12-01T02:22:38.813Z,7.15
2018-12-01T02:25:10.332Z,7.13
2018-12-01T02:27:38.572Z,7.11
2018-12-01T02:30:11.951Z,7.07
2018-12-01T02:32:40.252Z,6.96
2018-12-01T02:35:10.773Z,6.97
2018-12-01T02:37:39.053Z,6.83
2018-12-01T02:40:14.692Z,6.94
2018-12-01T02:42:43.494Z,6.86
2018-12-01T02:45:22.893Z,6.83
2018-12-01T02:47:51.392Z,6.75
2018-12-01T02:50:26.274Z,6.76
2018-12-01T02:52:55.513Z,6.70
2018-12-01T02:55:24.333Z,6.73
2018-12-01T02:57:52.633Z,6.71
2018-12-01T03:00:20.833Z,6.69
2018-12-01T03:02:49.354Z,6.73
2018-12-01T03:05:17.592Z,6.80
2018-12-01T03:07:45.973Z,6.79
2018-12-01T03:10:16.633Z,6.79
2018-12-01T03:12:45.013Z,6.75
2018-12-01T03:15:17.313Z,6.79
2018-12-01T03:17:45.793Z,6.71
2018-12-01T03:20:15.113Z,6.69
2018-12-01T03:22:43.412Z,6.68
2018-12-01T03:25:20.534Z,6.69
2018-12-01T03:27:49.714Z,6.72
2018-12-01T03:30:25.965Z,6.79
2018-12-01T03:32:55.130Z,6.85
2018-12-01T03:35:24.413Z,6.92
2018-12-01T03:37:53.113Z,6.96
2018-12-01T03:40:21.993Z,7.01
2018-12-01T03:42:51.073Z,7.06
2018-12-01T03:45:20.679Z,7.14
2018-12-01T03:47:49.472Z,7.15
2018-12-01T03:50:24.114Z,7.17
2018-12-01T03:52:53.672Z,7.22
2018-12-01T03:55:26.112Z,7.26
2018-12-01T03:57:54.574Z,7.25
2018-12-01T04:00:31.112Z,7.18
2018-12-01T04:03:00.415Z,7.16
2018-12-01T04:05:28.704Z,7.19
2018-12-01T04:07:57.129Z,7.23
2018-12-01T04:10:25.384Z,7.20
2018-12-01T04:12:54.725Z,7.18
2018-12-01T04:15:23.005Z,7.15
2018-12-01T04:17:51.366Z,7.13
2018-12-01T04:20:19.544Z,7.07
2018-12-01T04:22:49.466Z,7.05
2018-12-01T04:25:18.863Z,7.06
2018-12-01T04:27:47.106Z,7.06
2018-12-01T04:30:19.505Z,7.04
2018-12-01T04:32:47.784Z,7.04
2018-12-01T04:35:17.766Z,7.08
2018-12-01T04:37:46.906Z,7.08
2018-12-01T04:40:15.124Z,7.14
2018-12-01T04:42:43.843Z,7.08
2018-12-01T04:45:12.983Z,7.03
2018-12-01T04:47:41.192Z,7.00
2018-12-01T04:50:12.784Z,6.94
2018-12-01T04:52:41.084Z,6.87
2018-12-01T04:55:12.424Z,6.81
2018-12-01T04:57:42.944Z,6.78
2018-12-01T05:00:17.182Z,6.72
2018-12-01T05:02:47.863Z,6.67
2018-12-01T05:05:17.466Z,6.66
2018-12-01T05:07:45.725Z,6.65
2018-12-01T05:10:17.724Z,6.64
2018-12-01T05:12:46.087Z,6.65
2018-12-01T05:15:19.547Z,6.62
2018-12-01T05:17:47.963Z,6.66
2018-12-01T05:20:19.304Z,6.65
2018-12-01T05:22:47.859Z,6.66
2018-12-01T05:25:17.604Z,6.65
2018-12-01T05:27:45.932Z,6.71
2018-12-01T05:30:14.386Z,6.73
2018-12-01T05:32:42.784Z,6.73
2018-12-01T05:35:14.246Z,6.74
2018-12-01T05:37:42.644Z,6.71
2018-12-01T05:40:12.365Z,6.76
2018-12-01T05:42:43.824Z,6.69
2018-12-01T05:45:16.464Z,6.69
2018-12-01T05:47:44.847Z,6.66
2018-12-01T05:50:13.968Z,6.73
2018-12-01T05:52:42.304Z,6.71
2018-12-01T05:55:12.484Z,6.70
2018-12-01T05:57:40.884Z,6.67
2018-12-01T06:00:18.323Z,6.71
2018-12-01T06:02:53.644Z,6.71
2018-12-01T06:05:22.384Z,6.74
2018-12-01T06:07:53.005Z,6.74
2018-12-01T06:10:22.812Z,6.80
2018-12-01T06:12:55.544Z,6.84
2018-12-01T06:15:25.584Z,6.85
2018-12-01T06:17:54.184Z,6.94
2018-12-01T06:20:34.464Z,6.97
2018-12-01T06:23:03.104Z,7.01
2018-12-01T06:25:33.684Z,7.00
2018-12-01T06:28:02.249Z,7.08
2018-12-01T06:30:30.748Z,7.06
2018-12-01T06:32:59.684Z,7.07
2018-12-01T06:35:29.105Z,6.99
2018-12-01T06:38:03.104Z,6.94
2018-12-01T06:40:41.144Z,6.93
2018-12-01T06:43:10.212Z,6.96
2018-12-01T06:45:38.972Z,7.01
2018-12-01T06:48:07.273Z,6.98
2018-12-01T06:50:35.672Z,7.02
2018-12-01T06:53:04.155Z,7.06
2018-12-01T06:55:38.717Z,7.10
2018-12-01T06:58:15.993Z,7.06
2018-12-01T07:00:45.733Z,7.05
2018-12-01T07:03:13.993Z,7.04
2018-12-01T07:05:46.294Z,7.02
2018-12-01T07:08:15.224Z,7.11
2018-12-01T07:10:43.505Z,7.17
2018-12-01T07:13:17.845Z,7.13
2018-12-01T07:15:47.504Z,7.10
2018-12-01T07:18:26.844Z,7.14
2018-12-01T07:20:55.784Z,7.18
2018-12-01T07:23:25.244Z,7.14
2018-12-01T07:25:55.124Z,7.14
2018-12-01T07:28:23.784Z,7.07
2018-12-01T07:30:54.904Z,7.08
2018-12-01T07:33:39.305Z,7.11
2018-12-01T07:36:12.344Z,7.23
2018-12-01T07:38:47.584Z,7.24
2018-12-01T07:41:16.364Z,7.27
2018-12-01T07:43:45.725Z,7.28
2018-12-01T07:46:16.784Z,7.29
2018-12-01T07:48:45.364Z,7.32
2018-12-01T07:51:31.065Z,7.33
2018-12-01T07:54:09.984Z,7.33
2018-12-01T07:56:54.905Z,7.33
2018-12-01T08:02:08.505Z,7.31
2018-12-01T08:04:46.115Z,7.25
2018-12-01T08:07:20.205Z,7.24
2018-12-01T08:09:53.627Z,7.21
2018-12-01T08:15:05.745Z,7.14
2018-12-01T08:17:54.966Z,7.17
2018-12-01T08:20:35.585Z,7.21
2018-12-01T08:26:00.626Z,7.30
2018-12-01T08:28:30.625Z,7.31
2018-12-01T08:30:59.005Z,7.39
2018-12-01T08:33:28.587Z,7.43
2018-12-01T08:35:57.845Z,7.44
2018-12-01T08:38:26.506Z,7.47
2018-12-01T08:40:54.845Z,7.55
2018-12-01T08:43:23.165Z,7.63
2018-12-01T08:45:51.567Z,7.69
2018-12-01T08:48:20.093Z,7.68
2018-12-01T08:50:48.585Z,7.77
2018-12-01T08:53:17.085Z,7.79
2018-12-01T08:55:45.526Z,7.85
2018-12-01T08:58:17.305Z,7.93
2018-12-01T09:00:46.665Z,7.93
2018-12-01T09:03:20.285Z,7.95
2018-12-01T09:05:48.613Z,7.98
2018-12-01T09:08:17.153Z,8.03
2018-12-01T09:10:45.734Z,8.05
2018-12-01T09:13:14.159Z,8.11
2018-12-01T09:15:43.170Z,8.19
2018-12-01T09:18:11.462Z,8.18
2018-12-01T09:20:39.535Z,8.19
2018-12-01T09:23:08.640Z,8.12
2018-12-01T09:25:36.792Z,8.05
2018-12-01T09:28:05.637Z,8.10
2018-12-01T09:30:34.983Z,8.12
2018-12-01T09:33:03.135Z,8.11
2018-12-01T09:35:31.461Z,8.14
2018-12-01T09:37:59.848Z,8.16
2018-12-01T09:40:28.240Z,8.18
2018-12-01T09:42:56.600Z,8.22
2018-12-01T09:45:26.159Z,8.31
2018-12-01T09:47:55.459Z,8.29
2018-12-01T09:50:23.700Z,8.32
2018-12-01T09:52:53.159Z,8.33
2018-12-01T09:55:23.579Z,8.37
2018-12-01T09:57:51.900Z,8.41
2018-12-01T10:00:22.921Z,8.37
2018-12-01T10:02:51.244Z,8.39
2018-12-01T10:05:20.067Z,8.54
2018-12-01T10:07:48.450Z,8.61
2018-12-01T10:10:17.779Z,8.76
2018-12-01T10:12:46.959Z,8.78
2018-12-01T10:15:16.378Z,8.83
2018-12-01T10:17:44.844Z,8.78
2018-12-01T10:20:20.879Z,8.73
2018-12-01T10:22:49.239Z,8.73
2018-12-01T10:25:18.080Z,8.79
2018-12-01T10:27:47.239Z,8.86
2018-12-01T10:30:16.620Z,8.87
2018-12-01T10:32:44.988Z,8.85
2018-12-01T10:35:15.341Z,8.88
2018-12-01T10:37:44.499Z,9.02
2018-12-01T10:40:13.499Z,9.09
2018-12-01T10:42:41.789Z,9.10
2018-12-01T10:45:14.190Z,9.23
2018-12-01T10:47:42.999Z,9.18
2018-12-01T10:50:13.039Z,9.16
2018-12-01T10:52:41.480Z,9.12
2018-12-01T10:55:28.279Z,9.10
2018-12-01T10:57:57.879Z,9.17
2018-12-01T11:00:32.767Z,9.25
2018-12-01T11:03:05.990Z,9.38
2018-12-01T11:05:35.690Z,9.39
2018-12-01T11:08:05.667Z,9.47
2018-12-01T11:10:35.246Z,9.47
2018-12-01T11:13:04.166Z,9.43
2018-12-01T11:15:33.347Z,9.42
2018-12-01T11:18:01.779Z,9.43
2018-12-01T11:20:30.799Z,9.45
2018-12-01T11:22:59.101Z,9.46
2018-12-01T11:25:27.399Z,9.39
2018-12-01T11:27:55.719Z,9.43
2018-12-01T11:30:23.959Z,9.47
2018-12-01T11:32:52.278Z,9.38
2018-12-01T11:35:20.562Z,9.47
2018-12-01T11:37:48.859Z,9.48
2018-12-01T11:40:18.240Z,9.53
2018-12-01T11:42:46.756Z,9.62
2018-12-01T11:45:16.516Z,9.68
2018-12-01T11:47:44.877Z,9.73
2018-12-01T11:50:17.957Z,9.65
2018-12-01T11:52:48.048Z,9.74
2018-12-01T11:55:19.637Z,9.68
2018-12-01T11:57:47.905Z,9.69
2018-12-01T12:00:17.322Z,9.80
2018-12-01T12:02:45.773Z,9.90
2018-12-01T12:05:14.884Z,9.97
2018-12-01T12:07:54.069Z,9.98
2018-12-01T12:10:22.596Z,10.00
2018-12-01T12:12:51.809Z,10.00
2018-12-01T12:15:21.009Z,9.88
2018-12-01T12:17:51.110Z,9.85
2018-12-01T12:20:19.596Z,9.81
2018-12-01T12:22:47.858Z,9.77
2018-12-01T12:25:16.149Z,9.72
2018-12-01T12:27:44.529Z,9.76
2018-12-01T12:30:13.498Z,9.78
2018-12-01T12:32:41.709Z,9.69
2018-12-01T12:35:10.877Z,9.69
2018-12-01T12:37:38.939Z,9.71
2018-12-01T12:40:11.569Z,9.75
2018-12-01T12:42:39.904Z,9.74
2018-12-01T12:45:10.535Z,9.73
2018-12-01T12:47:38.701Z,9.75
2018-12-01T12:50:23.499Z,9.75
2018-12-01T12:52:53.544Z,9.70
2018-12-01T12:55:26.403Z,9.80
2018-12-01T12:57:56.539Z,9.76
2018-12-01T13:00:28.299Z,9.69
2018-12-01T13:02:58.428Z,9.72
2018-12-01T13:05:28.249Z,9.71
2018-12-01T13:07:58.984Z,9.67
2018-12-01T13:10:27.994Z,9.60
2018-12-01T13:12:56.561Z,9.58
2018-12-01T13:15:31.549Z,9.48
2018-12-01T13:18:02.734Z,9.46
2018-12-01T13:23:26.263Z,9.47
2018-12-01T13:25:59.312Z,9.43
2018-12-01T13:28:36.511Z,9.51
2018-12-01T13:31:07.008Z,9.56
2018-12-01T13:33:38.014Z,9.56
2018-12-01T13:36:08.748Z,9.53
2018-12-01T13:38:41.969Z,9.44
2018-12-01T13:41:18.149Z,9.42
2018-12-01T13:43:51.164Z,9.44
2018-12-01T13:46:37.677Z,9.42
2018-12-01T13:49:06.072Z,9.35
2018-12-01T13:51:34.519Z,9.36
2018-12-01T13:54:04.383Z,9.36
2018-12-01T13:56:46.704Z,9.30
2018-12-01T13:59:15.670Z,9.23
2018-12-01T14:01:45.352Z,9.27
2018-12-01T14:04:13.886Z,9.26
2018-12-01T14:06:42.767Z,9.24
2018-12-01T14:09:11.224Z,9.23
2018-12-01T14:11:41.078Z,9.19
2018-12-01T14:14:09.294Z,9.14
2018-12-01T14:16:37.899Z,9.09
2018-12-01T14:19:07.544Z,9.06
2018-12-01T14:21:35.801Z,9.00
2018-12-01T14:24:04.560Z,9.04
2018-12-01T14:26:33.449Z,8.92
2018-12-01T14:29:02.213Z,9.00
2018-12-01T14:31:31.143Z,8.99
2018-12-01T14:34:00.199Z,8.99
2018-12-01T14:36:29.056Z,8.97
2018-12-01T14:38:58.151Z,8.98
2018-12-01T14:47:26.146Z,8.88
2018-12-01T14:50:03.559Z,8.88
2018-12-01T14:52:32.677Z,8.86
2018-12-01T14:55:01.552Z,8.81
2018-12-01T14:57:32.366Z,8.81
2018-12-01T15:00:04.358Z,8.76
2018-12-01T15:02:32.636Z,8.66
2018-12-01T15:05:11.718Z,8.65
2018-12-01T15:07:40.716Z,8.57
2018-12-01T15:10:11.963Z,8.53
2018-12-01T15:12:41.500Z,8.57
2018-12-01T15:21:09.123Z,8.45
2018-12-01T15:26:45.248Z,8.43
2018-12-01T15:29:14.901Z,8.37
2018-12-01T15:31:48.078Z,8.35
2018-12-01T15:37:07.999Z,8.41
2018-12-01T15:42:40.766Z,8.50
2018-12-01T15:48:19.117Z,8.51
2018-12-01T15:51:00.300Z,8.51
2018-12-01T15:53:30.900Z,8.49
2018-12-01T15:56:00.106Z,8.49
2018-12-01T16:10:55.754Z,8.42
2018-12-01T16:16:35.863Z,8.41
2018-12-01T16:19:08.467Z,8.37
2018-12-01T16:24:31.023Z,8.38
2018-12-01T16:27:00.663Z,8.37
2018-12-01T16:41:51.981Z,8.26
2018-12-01T16:44:24.861Z,8.20
2018-12-01T16:47:01.868Z,8.25
2018-12-01T16:50:00.073Z,8.26
2018-12-01T16:52:52.750Z,8.22
2018-12-01T16:56:01.178Z,8.23
2018-12-01T16:58:30.895Z,8.27
2018-12-01T17:10:14.232Z,8.24
2018-12-01T21:47:26.172Z,7.63
2018-12-01T21:49:54.532Z,7.60
2018-12-01T21:52:31.820Z,7.61
2018-12-01T21:55:21.394Z,7.57
2018-12-01T21:57:54.501Z,7.52
2018-12-01T22:00:27.751Z,7.49
2018-12-01T22:03:15.559Z,7.41
2018-12-01T22:08:37.952Z,7.37
2018-12-01T22:11:11.511Z,7.37
2018-12-01T22:13:47.600Z,7.31
2018-12-01T22:16:16.371Z,7.30
2018-12-01T22:18:44.939Z,7.24
2018-12-01T22:21:17.100Z,7.30
2018-12-01T22:23:45.819Z,7.32
2018-12-01T22:26:19.031Z,7.28
2018-12-01T22:28:47.654Z,7.30
2018-12-01T22:31:16.792Z,7.29
2018-12-01T22:33:45.901Z,7.35
2018-12-01T22:36:14.511Z,7.34
2018-12-01T22:38:43.613Z,7.33
2018-12-01T22:41:12.711Z,7.32
2018-12-01T22:43:41.219Z,7.31
2018-12-01T22:46:09.739Z,7.31
2018-12-01T22:48:40.562Z,7.26
2018-12-01T22:51:12.532Z,7.30
2018-12-01T22:53:41.844Z,7.31
2018-12-01T22:56:10.634Z,7.29
2018-12-01T22:58:47.152Z,7.30
2018-12-01T23:01:15.552Z,7.40
2018-12-01T23:03:45.589Z,7.43
2018-12-01T23:06:14.520Z,7.45
2018-12-01T23:08:43.280Z,7.47
2018-12-01T23:11:16.588Z,7.50
2018-12-01T23:13:53.715Z,7.51
2018-12-01T23:16:22.418Z,7.65
2018-12-01T23:18:52.638Z,7.64
2018-12-01T23:21:21.195Z,7.66
2018-12-01T23:23:51.544Z,7.72
2018-12-01T23:26:21.648Z,7.77
2018-12-01T23:28:50.544Z,7.75
2018-12-01T23:31:25.069Z,7.77
2018-12-01T23:36:41.986Z,7.92
2018-12-01T23:39:12.015Z,8.01
2018-12-01T23:41:46.478Z,7.99
2018-12-01T23:44:22.923Z,8.15
2018-12-01T23:46:52.958Z,8.20
2018-12-01T23:49:23.869Z,8.33
2018-12-01T23:51:59.933Z,8.38
2018-12-01T23:54:31.993Z,8.33
2018-12-01T23:57:07.064Z,8.39
2018-12-01T23:59:38.807Z,8.45
